• Join FlightAware (Why Join?)
  • Login
  • US Flag 
01:42PM EDT


 

Airport Tracker/Info


-or-


 

Live Flight TrackerFlight Track Log ✈ N566UA ✈ 20-Apr-2013 ✈ KSFO - KORD

Flight Track Log - Related Links

Times and Time Zones

All times are in EDT time to prevent confusion due to time zone crossing. See the N566UA flight status page for this flight to view local times or setup timezone preferences in your user account.

Time Position Orientation Groundspeed Altitude Reporting Facility
EDT Latitude Longitude Course Direction KTS MPH feet Rate Location/Type
02:13PM 37.6500 -122.3500 65° Northeast 174 200 1,800  Level Northern Cal TRACON
02:14PM 37.6833 -122.3000 50° Northeast 214 246 3,800 2,400 Climbing Northern Cal TRACON
02:15PM 37.6359 -122.4265 119° Southeast  Level FlightAware Approximate
02:15PM 37.7333 -122.2167 53° Northeast 258 297 6,600  Level Northern Cal TRACON
02:16PM 37.6431 -122.2777 72° East  Level FlightAware Approximate
02:16PM 37.7500 -122.1333 76° East 280 322 9,300  Level Northern Cal TRACON
02:17PM 37.6859 -122.1257 67° East  Level FlightAware Approximate
02:17PM 37.7933 -122.0083 66° East 330 380 10,900  Level Oakland Center
02:18PM 37.7407 -121.9799 65° Northeast  Level FlightAware Approximate
02:18PM 37.8278 -121.8833 71° East 375 432 13,200  Level Oakland Center
02:19PM 37.8633 -121.7553 71° East 388 447 15,600 2,160 Climbing Oakland Center
02:20PM 37.9025 -121.6208 70° East 405 466 17,700 2,040 Climbing Oakland Center
02:21PM 37.9456 -121.4644 71° East 424 488 19,800 1,800 Climbing Oakland Center
02:22PM 37.9867 -121.3206 70° East 436 502 21,500 1,620 Climbing Oakland Center
02:23PM 38.0153 -121.1639 77° East 456 525 23,200 1,620 Climbing Oakland Center
02:24PM 38.0392 -121.0008 79° East 470 541 24,900 1,440 Climbing Oakland Center
02:25PM 38.0631 -120.8350 80° East 481 554 26,200 1,320 Climbing Oakland Center
02:26PM 38.0875 -120.6661 80° East 489 563 27,600 1,260 Climbing Oakland Center
02:27PM 38.1125 -120.4942 79° East 497 572 28,800 1,080 Climbing Oakland Center
02:28PM 38.1428 -120.2814 80° East 512 589 29,900 1,260 Climbing Oakland Center
02:29PM 38.1675 -120.1025 80° East 516 594 31,400 1,260 Climbing Oakland Center
02:30PM 38.1922 -119.9250 80° East 513 590 32,600 1,080 Climbing Oakland Center
02:31PM 38.2161 -119.7472 80° East 512 589 33,700 1,020 Climbing Oakland Center
02:32PM 38.2400 -119.5694 80° East 512 589 34,700 600 Climbing Oakland Center
02:33PM 38.2636 -119.3939 80° East 510 587 35,000 120 Climbing Oakland Center
02:34PM 38.2869 -119.2150 81° East 514 592 35,000  Level Oakland Center
02:35PM 38.3097 -119.0364 81° East 514 592 35,000  Level Oakland Center
02:36PM 38.3378 -118.8211 81° East 517 595 35,000  Level Oakland Center
02:37PM 38.3600 -118.6403 81° East 519 597 35,000  Level Oakland Center
02:38PM 38.3828 -118.4606 81° East 518 596 35,000  Level Oakland Center
02:39PM 38.4050 -118.2803 81° East 517 595 35,000  Level Oakland Center
02:40PM 38.4286 -118.0786 81° East 522 601 35,000  Level Oakland Center
02:41PM 38.4506 -117.8944 81° East 522 601 35,000  Level Oakland Center
02:42PM 38.4717 -117.7117 82° East 519 597 35,000  Level Oakland Center
02:43PM 38.4939 -117.5253 81° East 524 603 35,000  Level Salt Lake Center
02:44PM 38.5144 -117.3389 82° East 524 603 35,000  Level Salt Lake Center
02:45PM 38.5275 -117.1497 85° East 528 608 35,000  Level Salt Lake Center
02:46PM 38.5375 -116.9597 86° East 533 613 35,000  Level Oakland Center
02:47PM 38.5464 -116.7694 87° East 534 615 35,000  Level Oakland Center
02:48PM 38.5547 -116.5792 87° East 534 615 35,000  Level Oakland Center
02:49PM 38.5633 -116.3892 87° East 536 617 35,000  Level Oakland Center
02:51PM 38.5736 -116.1639 87° East 531 611 35,000  Level Salt Lake Center
02:52PM 38.5814 -115.9758 87° East 529 609 35,000  Level Salt Lake Center
02:53PM 38.5894 -115.7878 87° East 529 609 35,000  Level Salt Lake Center
02:54PM 38.5969 -115.6011 87° East 527 606 35,000  Level Salt Lake Center
02:55PM 38.6042 -115.4122 87° East 532 612 35,000  Level Salt Lake Center
02:56PM 38.6122 -115.2097 87° East 533 613 35,000  Level Salt Lake Center
02:57PM 38.6181 -115.0194 88° East 535 616 35,000  Level Salt Lake Center
02:58PM 38.6228 -114.8308 88° East 534 615 35,000  Level Salt Lake Center
02:59PM 38.6261 -114.6428 89° East 530 610 35,000  Level Salt Lake Center
03:00PM 38.6319 -114.4503 88° East 537 618 35,000  Level Salt Lake Center
03:01PM 38.6417 -114.2556 86° East 543 625 35,000  Level Salt Lake Center
03:02PM 38.6481 -114.0261 88° East 541 623 35,000  Level Salt Lake Center
03:03PM 38.6528 -113.8353 88° East 538 619 35,000  Level Salt Lake Center
03:04PM 38.6561 -113.6467 89° East 532 612 35,000  Level Salt Lake Center
03:05PM 38.6611 -113.4550 88° East 535 616 35,000  Level Salt Lake Center
03:06PM 38.6647 -113.2642 89° East 536 617 35,000  Level Salt Lake Center
03:07PM 38.6678 -113.0756 89° East 533 613 35,000  Level Salt Lake Center
03:08PM 38.6706 -112.8867 89° East 531 611 35,000  Level Salt Lake Center
03:09PM 38.6731 -112.6958 89° East 534 615 35,000  Level Salt Lake Center
03:10PM 38.6761 -112.5067 89° East 533 613 35,000  Level Salt Lake Center
03:11PM 38.6781 -112.3181 89° East 531 611 35,000  Level Salt Lake Center
03:12PM 38.6814 -112.0897 89° East 533 613 35,000  Level Salt Lake Center
03:13PM 38.6831 -111.8989 89° East 536 617 35,000  Level Salt Lake Center
03:14PM 38.6839 -111.7097 90° East 532 612 35,000  Level Salt Lake Center
03:15PM 38.6844 -111.5175 90° East 538 619 35,000  Level Salt Lake Center
03:16PM 38.6867 -111.3267 89° East 538 619 35,000  Level Salt Lake Center
03:17PM 38.6847 -111.1347 91° East 540 621 35,000  Level Salt Lake Center
03:18PM 38.6853 -110.9453 90° East 535 616 35,000  Level Salt Lake Center
03:19PM 38.6842 -110.7294 90° East 538 619 35,000  Level Salt Lake Center
03:20PM 38.6839 -110.5497 90° East 531 611 35,000  Level Salt Lake Center
03:21PM 38.6819 -110.3419 91° East 525 604 35,000  Level Salt Lake Center
03:22PM 38.6800 -110.2522 92° East 521 600 35,000  Level Denver Center
03:23PM 38.6783 -110.0492 91° East 515 593 35,000  Level Denver Center
03:23PM 38.6794 -109.9936 89° East 513 590 35,000  Level Salt Lake Center
03:24PM 38.6922 -109.7942 85° East 504 580 35,000  Level Salt Lake Center
03:25PM 38.7033 -109.6808 83° East 500 575 35,000  Level Denver Center
03:26PM 38.7183 -109.5106 84° East 506 582 35,000  Level Denver Center
03:27PM 38.7331 -109.3428 84° East 500 575 35,000  Level Denver Center
03:28PM 38.7528 -109.1469 83° East 498 573 35,000  Level Denver Center
03:29PM 38.7686 -108.9800 83° East 496 571 35,000  Level Denver Center
03:30PM 38.7864 -108.7850 83° East 495 570 35,000  Level Denver Center
03:31PM 38.8017 -108.6175 83° East 495 570 35,000  Level Denver Center
03:32PM 38.8181 -108.4231 84° East 492 566 35,000  Level Denver Center
03:33PM 38.8328 -108.2533 84° East 500 575 35,000  Level Denver Center
03:34PM 38.8464 -108.0853 84° East 498 573 35,000  Level Denver Center
03:35PM 38.8619 -107.8869 84° East 500 575 35,000  Level Denver Center
03:36PM 38.8767 -107.7175 84° East 500 575 35,000  Level Denver Center
03:37PM 38.8917 -107.5197 84° East 500 575 35,000  Level Denver Center
03:38PM 38.9053 -107.3503 84° East 500 575 35,000  Level Denver Center
03:39PM 38.9194 -107.1539 85° East 498 573 35,000  Level Denver Center
03:40PM 38.9314 -106.9850 85° East 496 571 35,000  Level Denver Center
03:41PM 38.9447 -106.8156 84° East 499 574 35,000  Level Denver Center
03:42PM 38.9583 -106.6164 85° East 503 579 35,000  Level Denver Center
03:43PM 38.9694 -106.4442 85° East 505 581 35,000  Level Denver Center
03:44PM 38.9831 -106.2414 85° East 509 586 35,000  Level Denver Center
03:45PM 38.9939 -106.0600 86° East 498 573 35,000  Level Denver Center
03:46PM 39.0006 -105.8825 87° East 495 570 35,000  Level Denver Center
03:47PM 39.0019 -105.7050 89° East 494 568 35,000  Level Denver Center
03:49PM 39.0022 -105.5264 90° East 496 571 35,000  Level Denver Center
03:50PM 39.0036 -105.3486 89° East 495 570 35,000  Level Denver Center
03:51PM 39.0036 -105.1714 90° East 495 570 35,000  Level Denver Center
03:52PM 39.0042 -104.9942 90° East 494 568 35,000  Level Denver Center
03:53PM 39.0044 -104.8144 90° East 498 573 35,000  Level Denver Center
03:54PM 39.0036 -104.6364 90° East 498 573 35,000  Level Denver Center
03:55PM 39.0036 -104.4569 90° East 500 575 35,000  Level Denver Center
03:56PM 39.0022 -104.2481 90° East 499 574 35,000  Level Denver Center
03:57PM 39.0000 -104.0686 91° East 500 575 35,000  Level Denver Center
03:58PM 39.0092 -103.8894 86° East 500 575 35,000  Level Denver Center
03:59PM 39.0236 -103.7133 84° East 495 570 35,000  Level Denver Center
04:00PM 39.0392 -103.5353 84° East 497 572 35,000  Level Denver Center
04:01PM 39.0525 -103.3581 84° East 496 571 35,000  Level Denver Center
04:02PM 39.0669 -103.1814 84° East 494 568 35,000  Level Denver Center
04:03PM 39.0803 -103.0050 84° East 493 567 35,000  Level Denver Center
04:04PM 39.0914 -102.8558 84° East 497 572 35,000  Level Denver Center
04:05PM 39.1064 -102.6461 85° East 494 568 35,000  Level Denver Center
04:06PM 39.1203 -102.4489 85° East 494 568 35,000  Level Denver Center
04:07PM 39.1333 -102.2786 84° East 499 574 35,000  Level Denver Center
04:08PM 39.1447 -102.1092 85° East 496 571 35,000  Level Denver Center
04:09PM 39.1656 -101.9125 82° East 498 573 35,000  Level Denver Center
04:10PM 39.1900 -101.7450 79° East 497 572 35,000  Level Denver Center
04:11PM 39.2172 -101.5603 79° East 496 571 35,000  Level Denver Center
04:12PM 39.2408 -101.3911 80° East 501 577 35,000  Level Denver Center
04:13PM 39.2689 -101.1947 79° East 500 575 35,000  Level Denver Center
04:14PM 39.2964 -100.9969 80° East 503 579 35,000  Level Denver Center
04:15PM 39.3194 -100.8264 80° East 506 582 35,000  Level Denver Center
04:16PM 39.3464 -100.6272 80° East 505 581 35,000  Level Denver Center
04:17PM 39.3725 -100.4294 80° East 504 580 35,000  Level Denver Center
04:18PM 39.3953 -100.2600 80° East 503 579 35,000  Level Denver Center
04:19PM 39.4208 -100.0600 81° East 505 581 35,000  Level Denver Center
04:20PM 39.4425 -99.8878 81° East 508 585 35,000  Level Denver Center
04:21PM 39.4644 -99.7164 81° East 506 582 35,000  Level Denver Center
04:22PM 39.4914 -99.5067 80° East 506 582 35,000  Level Denver Center
04:24PM 39.5131 -99.3283 81° East 505 581 35,000  Level Denver Center
04:25PM 39.5344 -99.1494 81° East 504 580 35,000  Level Denver Center
04:26PM 39.5564 -98.9692 81° East 507 583 35,000  Level Denver Center
04:27PM 39.5772 -98.7911 81° East 502 578 35,000  Level Denver Center
04:28PM 39.5986 -98.6119 81° East 503 579 35,000  Level Denver Center
04:29PM 39.6197 -98.4319 81° East 506 582 35,000  Level Denver Center
04:30PM 39.6394 -98.2531 82° East 504 580 35,000  Level Denver Center
04:31PM 39.6589 -98.0719 82° East 507 583 35,000  Level Minneapolis Center
04:32PM 39.6789 -97.8917 82° East 507 583 35,000  Level Minneapolis Center
04:33PM 39.6992 -97.7117 82° East 506 582 35,000  Level Minneapolis Center
04:34PM 39.7178 -97.5339 82° East 508 585 35,000  Level Minneapolis Center
04:35PM 39.7375 -97.3519 82° East 509 586 35,000  Level Minneapolis Center
04:36PM 39.7600 -97.1333 82° East 510 587 35,000  Level Minneapolis Center
04:37PM 39.7756 -96.9778 83° East 511 588 35,000  Level Kansas City Center
04:38PM 39.7972 -96.7583 83° East 517 595 35,000  Level Kansas City Center
04:39PM 39.8161 -96.5767 82° East 510 587 35,000  Level Kansas City Center
04:40PM 39.8339 -96.3919 83° East 514 592 35,000  Level Kansas City Center
04:41PM 39.8503 -96.2092 83° East 511 588 35,000  Level Kansas City Center
04:42PM 39.8703 -95.9989 83° East 513 590 35,000  Level Kansas City Center
04:43PM 39.8869 -95.8208 83° East 514 592 35,000  Level Kansas City Center
04:44PM 39.9028 -95.6431 83° East 515 593 35,000  Level Kansas City Center
04:45PM 39.9211 -95.4369 83° East 512 589 35,000  Level Kansas City Center
04:46PM 39.9361 -95.2603 84° East 511 588 35,000  Level Kansas City Center
04:47PM 39.9544 -95.0536 83° East 512 589 35,000  Level Kansas City Center
04:48PM 39.9689 -94.8772 84° East 510 587 35,000  Level Kansas City Center
04:49PM 39.9831 -94.6997 84° East 511 588 35,000  Level Kansas City Center
04:50PM 39.9997 -94.4928 84° East 513 590 35,000  Level Kansas City Center
04:51PM 40.0136 -94.3147 84° East 515 593 35,000  Level Kansas City Center
04:52PM 40.0297 -94.1092 84° East 511 588 35,000  Level Kansas City Center
04:53PM 40.0461 -93.9483 82° East 519 597 35,000  Level Kansas City Center
04:54PM 40.0883 -93.7378 75° East 508 585 35,000  Level Kansas City Center
04:55PM 40.1269 -93.5614 74° East 507 583 35,000  Level Kansas City Center
04:56PM 40.1639 -93.3844 75° East 508 585 35,000  Level Kansas City Center
04:57PM 40.2006 -93.2072 75° East 509 586 35,000  Level Kansas City Center
04:58PM 40.2378 -93.0211 75° East 508 585 35,000  Level Kansas City Center
04:59PM 40.2786 -92.8233 75° East 506 582 35,000  Level Kansas City Center
05:00PM 40.3136 -92.6550 75° East 502 578 35,000  Level Kansas City Center
05:01PM 40.3436 -92.4767 77° East 506 582 35,000  Level Kansas City Center
05:02PM 40.3886 -92.2689 74° East 510 587 35,000  Level Kansas City Center
05:04PM 40.4231 -92.0911 76° East 508 585 35,000 -240 Level Kansas City Center
05:05PM 40.4569 -91.9119 76° East 509 586 34,600 -720 Descending Kansas City Center
05:06PM 40.4911 -91.7300 76° East 515 593 33,600 -960 Descending Kansas City Center
05:06PM 40.5117 -91.6225 76° East 514 592 33,100 -480 Descending Chicago Center
05:07PM 40.5456 -91.4436 76° East 509 586 32,900 -60 Descending Chicago Center
05:08PM 40.6028 -91.2594 68° East 510 587 33,000  Climbing Chicago Center
05:09PM 40.6608 -91.0892 66° East 509 586 33,000 -540 Level Chicago Center
05:10PM 40.7206 -90.9175 65° Northeast 513 590 31,900 -1,020 Descending Chicago Center
05:11PM 40.7783 -90.7436 66° East 517 595 31,000 -480 Descending Chicago Center
05:12PM 40.8486 -90.5336 66° East 519 597 31,000 -780 Level Chicago Center
05:13PM 40.9061 -90.3611 66° East 509 586 29,500 -1,440 Descending Chicago Center
05:14PM 40.9597 -90.1997 66° East 493 567 28,100 -1,500 Descending Chicago Center
05:15PM 41.0161 -90.0264 67° East 490 564 26,500 -1,560 Descending Chicago Center
05:16PM 41.0711 -89.8631 66° East 481 554 25,000 -1,260 Descending Chicago Center
05:17PM 41.1225 -89.7033 67° East 471 542 24,000 -1,140 Descending Chicago Center
05:18PM 41.1761 -89.5486 65° Northeast 461 531 22,700 -1,500 Descending Chicago Center
05:20PM 41.2356 -89.4036 61° Northeast 446 513 20,900 -1,980 Descending Chicago Center
05:21PM 41.2903 -89.2658 62° Northeast 424 488 18,700 -2,100 Descending Chicago Center
05:22PM 41.3494 -89.1186 62° Northeast 414 476 16,600 -2,040 Descending Chicago Center
05:23PM 41.4011 -88.9889 62° Northeast 400 460 14,600 -2,040 Descending Chicago Center
05:24PM 41.4503 -88.8658 62° Northeast 380 437 12,500 -1,800 Descending Chicago Center
05:25PM 41.4978 -88.7444 62° Northeast 370 426 11,000 -720 Descending Chicago Center
05:26PM 41.5533 -88.6031 62° Northeast 362 417 11,100  Climbing Chicago Center
05:27PM 41.6117 -88.4986 53° Northeast 357 411 11,100 -60 Level Chicago Center
05:28PM 41.6744 -88.4006 49° Northeast 349 402 11,000 -60 Descending Chicago Center
05:29PM 41.7375 -88.3006 50° Northeast 351 404 11,000  Level Chicago Center
05:30PM 41.8006 -88.2000 50° Northeast 351 404 11,000  Level Chicago Center
05:31PM 41.8419 -88.0919 63° Northeast 323 372 11,000 -720 Level Chicago Center
05:32PM 41.8611 -87.9828 77° East 300 345 9,600 -1,740 Descending Chicago Center
05:33PM 41.8667 -87.8667 86° East 282 325 7,500 -1,920 Descending Chicago TRACON
05:34PM 41.8833 -87.7833 75° East 269 310 6,000 -1,320 Descending Chicago TRACON
05:35PM 41.9000 -87.6833 77° East 261 300 5,100 -900 Descending Chicago TRACON